Aloma, Florida
Current Conditions -  °F | °C
As of 2:53 PM on Friday 24 Oct 2014 (Local Time) from KORL Reporting Station
Broken Clouds Broken Clouds  
Wind Chill: 26°   Ceiling: 5000
Heat Index: 27°   Visibility: 10mi
Dew Point: 14°   Wind: 9mph
Humidity: 48%   Direction: 30°NNE
Pressure: 29.94"   Gusts: NA
Location:  28.6093°N, 81.2979°W
Report Text: KORL 241853Z 03008KT 10SM BKN050 26/14 A2994 RMK AO2 SLP141 T02610144
Loading
Personal Weather Stations






























Interactive Weather Map
Tropical Storm Tracking
New forecast layout! Learn more

10-Day Weather Forecast

Advertisements
Track Severe Weather on mobile